Time;durP1;ratioP1;P1;durP2;ratioP2;P2;SDS_P1;SDS_P2;PMS_P1;PMS_P2;Temp;Humidity;BMP_temperature;BMP_pressure;BME280_temperature;BME280_humidity;BME280_pressure;Samples;Min_cycle;Max_cycle;Signal;HPM_P1;HPM_P2
2023/12/30 00:02:16;;;;;;;9.38;2.22;;;;;;;;;;5060946;28;20084;-60
2023/12/30 00:04:42;;;;;;;7.38;1.10;;;;;;;;;;5061535;28;20053;-60
2023/12/30 00:07:09;;;;;;;12.18;1.52;;;;;;;;;;5049706;28;20100;-60
2023/12/30 00:09:35;;;;;;;7.57;1.40;;;;;;;;;;5062799;28;20402;-60
2023/12/30 00:12:02;;;;;;;8.52;2.38;;;;;;;;;;5063458;28;20053;-60
2023/12/30 00:14:28;;;;;;;8.93;2.13;;;;;;;;;;5061222;28;20383;-60
2023/12/30 00:16:55;;;;;;;9.95;1.40;;;;;;;;;;5056960;28;20056;-61
2023/12/30 00:19:21;;;;;;;3.58;1.25;;;;;;;;;;5063105;28;20053;-59
2023/12/30 00:21:48;;;;;;;11.30;1.50;;;;;;;;;;5061957;28;20095;-59
2023/12/30 00:24:14;;;;;;;10.82;1.45;;;;;;;;;;5062806;28;20430;-60
2023/12/30 00:26:41;;;;;;;6.47;1.50;;;;;;;;;;5061813;28;20123;-61
2023/12/30 00:29:07;;;;;;;6.45;1.38;;;;;;;;;;5062094;28;20053;-60
2023/12/30 00:31:33;;;;;;;11.70;2.53;;;;;;;;;;5061699;28;20495;-60
2023/12/30 00:34:00;;;;;;;7.38;1.40;;;;;;;;;;5061006;28;20057;-60
2023/12/30 00:36:28;;;;;;;4.50;1.50;;;;;;;;;;5061096;28;20526;-61
2023/12/30 00:38:54;;;;;;;9.65;1.85;;;;;;;;;;5060744;28;20539;-60
2023/12/30 00:41:21;;;;;;;13.52;1.73;;;;;;;;;;5062039;28;20051;-61
2023/12/30 00:43:48;;;;;;;9.05;2.13;;;;;;;;;;5061647;28;20052;-60
2023/12/30 00:46:14;;;;;;;9.20;1.30;;;;;;;;;;5060750;28;20061;-60
2023/12/30 00:48:41;;;;;;;4.13;1.38;;;;;;;;;;5063566;28;20400;-60
2023/12/30 00:51:07;;;;;;;8.75;1.70;;;;;;;;;;5063455;28;20514;-60
2023/12/30 00:53:34;;;;;;;7.38;1.10;;;;;;;;;;5064380;28;20072;-60
2023/12/30 00:56:00;;;;;;;5.20;1.35;;;;;;;;;;5064708;28;20955;-60
2023/12/30 00:58:26;;;;;;;9.57;1.33;;;;;;;;;;5064545;28;20052;-60
2023/12/30 01:00:53;;;;;;;5.18;1.35;;;;;;;;;;5064477;28;20052;-61
2023/12/30 01:03:20;;;;;;;12.20;1.30;;;;;;;;;;5064818;28;20128;-60
2023/12/30 01:05:46;;;;;;;9.43;1.85;;;;;;;;;;5063640;28;20425;-59
2023/12/30 01:08:13;;;;;;;9.68;1.42;;;;;;;;;;5063499;28;20079;-61
2023/12/30 01:10:39;;;;;;;8.50;1.67;;;;;;;;;;5063784;28;20055;-60
2023/12/30 01:13:06;;;;;;;7.18;1.95;;;;;;;;;;5063875;28;20114;-59
2023/12/30 01:15:32;;;;;;;10.48;1.42;;;;;;;;;;5067384;28;20053;-60
2023/12/30 01:17:59;;;;;;;10.80;2.20;;;;;;;;;;5064491;28;20183;-58
2023/12/30 01:20:25;;;;;;;8.13;1.30;;;;;;;;;;5063081;28;20939;-58
2023/12/30 01:22:52;;;;;;;9.93;1.25;;;;;;;;;;5065141;28;20053;-60
2023/12/30 01:25:18;;;;;;;6.68;1.08;;;;;;;;;;5065693;28;20107;-61
2023/12/30 01:27:45;;;;;;;7.63;1.90;;;;;;;;;;5063597;28;20057;-61
2023/12/30 01:30:11;;;;;;;8.27;1.58;;;;;;;;;;5062591;28;20045;-61
2023/12/30 01:32:38;;;;;;;8.93;1.92;;;;;;;;;;5064282;28;20059;-61
2023/12/30 01:35:05;;;;;;;9.32;1.10;;;;;;;;;;5064058;28;20067;-61
2023/12/30 01:37:31;;;;;;;11.40;1.77;;;;;;;;;;5063690;28;20060;-60
2023/12/30 01:39:57;;;;;;;8.38;1.55;;;;;;;;;;5064239;28;20064;-61
2023/12/30 01:42:24;;;;;;;7.13;1.20;;;;;;;;;;5063413;28;20427;-61
2023/12/30 01:44:50;;;;;;;7.85;1.50;;;;;;;;;;5064055;28;20135;-61
2023/12/30 01:47:17;;;;;;;5.20;0.98;;;;;;;;;;5064359;28;20096;-61
2023/12/30 01:49:44;;;;;;;2.50;1.10;;;;;;;;;;5061832;28;20053;-61
2023/12/30 01:52:11;;;;;;;14.73;1.65;;;;;;;;;;5064144;28;20163;-61
2023/12/30 01:54:38;;;;;;;5.78;1.50;;;;;;;;;;5063019;28;20944;-61
2023/12/30 01:57:04;;;;;;;4.72;1.00;;;;;;;;;;5065418;28;20053;-61
2023/12/30 01:59:31;;;;;;;5.80;1.35;;;;;;;;;;5062514;28;20056;-60
2023/12/30 02:01:58;;;;;;;8.23;1.88;;;;;;;;;;5062398;28;20136;-61
2023/12/30 02:04:25;;;;;;;7.07;1.20;;;;;;;;;;5062823;28;20053;-61
2023/12/30 02:06:51;;;;;;;7.30;2.00;;;;;;;;;;5064723;28;20052;-61
2023/12/30 02:09:18;;;;;;;10.32;1.58;;;;;;;;;;5062693;28;20053;-61
2023/12/30 02:11:45;;;;;;;5.22;1.50;;;;;;;;;;5063502;28;20575;-60
2023/12/30 02:14:24;;;;;;;11.90;2.13;;;;;;;;;;5063707;28;20593;-62
2023/12/30 02:16:50;;;;;;;4.43;1.45;;;;;;;;;;5063747;28;20084;-61
2023/12/30 02:19:16;;;;;;;8.30;1.40;;;;;;;;;;5064382;28;20057;-61
2023/12/30 02:21:43;;;;;;;5.93;1.00;;;;;;;;;;5062728;28;20138;-60
2023/12/30 02:24:10;;;;;;;9.30;2.05;;;;;;;;;;5062905;28;20422;-60
2023/12/30 02:26:36;;;;;;;8.23;1.77;;;;;;;;;;5063203;28;20617;-60
2023/12/30 02:29:02;;;;;;;5.10;1.65;;;;;;;;;;5063663;28;20049;-60
2023/12/30 02:31:29;;;;;;;3.67;1.27;;;;;;;;;;5063261;28;20482;-60
2023/12/30 02:33:55;;;;;;;8.63;1.40;;;;;;;;;;5062074;28;20076;-61
2023/12/30 02:36:22;;;;;;;11.55;2.10;;;;;;;;;;5063381;28;20661;-62
2023/12/30 02:38:48;;;;;;;7.85;1.58;;;;;;;;;;5063701;28;20059;-61
2023/12/30 02:41:14;;;;;;;8.05;1.42;;;;;;;;;;5063152;28;20049;-60
2023/12/30 02:44:00;;;;;;;8.00;1.83;;;;;;;;;;5062916;28;20508;-61
2023/12/30 02:46:26;;;;;;;5.20;1.35;;;;;;;;;;5061796;28;21606;-60
2023/12/30 02:48:53;;;;;;;12.85;1.48;;;;;;;;;;5061744;28;20522;-61
2023/12/30 02:51:20;;;;;;;5.40;1.65;;;;;;;;;;5063595;28;20052;-61
2023/12/30 02:53:46;;;;;;;5.60;2.35;;;;;;;;;;5062917;28;20175;-62
2023/12/30 02:56:22;;;;;;;9.55;1.60;;;;;;;;;;5063293;28;20475;-61
2023/12/30 02:58:52;;;;;;;7.55;1.65;;;;;;;;;;5062274;28;20057;-60
2023/12/30 03:01:18;;;;;;;9.95;2.10;;;;;;;;;;5059604;28;20068;-61
2023/12/30 03:03:46;;;;;;;17.05;1.83;;;;;;;;;;5061604;28;20499;-61
2023/12/30 03:06:13;;;;;;;9.18;1.80;;;;;;;;;;5062884;28;20108;-60
2023/12/30 03:08:40;;;;;;;9.30;1.30;;;;;;;;;;5061587;28;20048;-61
2023/12/30 03:11:10;;;;;;;7.18;1.30;;;;;;;;;;5061712;28;20498;-61
2023/12/30 03:13:36;;;;;;;7.80;1.40;;;;;;;;;;5062744;28;20163;-60
2023/12/30 03:16:03;;;;;;;9.65;1.67;;;;;;;;;;5062851;28;20779;-60
2023/12/30 03:18:30;;;;;;;8.93;1.15;;;;;;;;;;5060864;28;20103;-60
2023/12/30 03:20:57;;;;;;;5.90;1.20;;;;;;;;;;5062412;28;20091;-60
2023/12/30 03:23:23;;;;;;;7.43;1.30;;;;;;;;;;5060183;28;20982;-60
2023/12/30 03:25:50;;;;;;;8.32;1.38;;;;;;;;;;5055551;28;20448;-60
2023/12/30 03:28:17;;;;;;;7.63;1.48;;;;;;;;;;5054947;28;21930;-61
2023/12/30 03:30:44;;;;;;;7.22;1.00;;;;;;;;;;5055942;28;20045;-61
2023/12/30 03:33:11;;;;;;;12.35;1.67;;;;;;;;;;5057518;28;20068;-61
2023/12/30 03:35:38;;;;;;;9.02;1.17;;;;;;;;;;5055526;28;20049;-60
2023/12/30 03:38:04;;;;;;;7.80;1.80;;;;;;;;;;5055024;28;20053;-59
2023/12/30 03:40:30;;;;;;;8.63;1.35;;;;;;;;;;5055029;28;20057;-61
2023/12/30 03:42:57;;;;;;;10.68;1.45;;;;;;;;;;5054932;28;20123;-60
2023/12/30 03:45:23;;;;;;;6.57;1.40;;;;;;;;;;5055270;28;20628;-60
2023/12/30 03:47:52;;;;;;;10.40;1.80;;;;;;;;;;5056456;28;20577;-61
2023/12/30 03:50:18;;;;;;;11.48;1.30;;;;;;;;;;5054540;28;20138;-60
2023/12/30 03:52:45;;;;;;;9.02;1.20;;;;;;;;;;5054892;28;20053;-61
2023/12/30 03:55:12;;;;;;;4.90;1.50;;;;;;;;;;5056948;28;20049;-61
2023/12/30 03:57:38;;;;;;;8.05;1.38;;;;;;;;;;5055121;28;20053;-60
2023/12/30 04:00:05;;;;;;;7.22;1.77;;;;;;;;;;5054894;28;20052;-58
2023/12/30 04:02:31;;;;;;;12.60;1.35;;;;;;;;;;5055290;28;20136;-60
2023/12/30 04:04:58;;;;;;;7.22;1.25;;;;;;;;;;5054998;28;20057;-61
2023/12/30 04:07:24;;;;;;;8.25;2.05;;;;;;;;;;5061380;28;20065;-60
2023/12/30 04:09:51;;;;;;;8.75;1.95;;;;;;;;;;5061980;28;20084;-60
2023/12/30 04:12:18;;;;;;;7.30;1.48;;;;;;;;;;5062812;28;20053;-60
2023/12/30 04:14:45;;;;;;;8.82;1.40;;;;;;;;;;5061765;28;20045;-60
2023/12/30 04:17:11;;;;;;;5.25;1.25;;;;;;;;;;5062887;28;20139;-60
2023/12/30 04:19:38;;;;;;;7.75;2.17;;;;;;;;;;5061787;28;20131;-60
2023/12/30 04:22:05;;;;;;;6.43;1.30;;;;;;;;;;5060122;28;20049;-60
2023/12/30 04:24:31;;;;;;;11.95;1.58;;;;;;;;;;5065337;28;20049;-61
2023/12/30 04:26:57;;;;;;;8.88;2.10;;;;;;;;;;5065578;28;20530;-60
2023/12/30 04:29:26;;;;;;;4.07;1.10;;;;;;;;;;5066004;28;20061;-60
2023/12/30 04:31:52;;;;;;;8.90;1.40;;;;;;;;;;5065939;28;20064;-61
2023/12/30 04:34:19;;;;;;;3.97;1.27;;;;;;;;;;5065488;28;20053;-60
2023/12/30 04:36:46;;;;;;;8.38;1.75;;;;;;;;;;5065063;28;20467;-61
2023/12/30 04:39:12;;;;;;;6.45;1.20;;;;;;;;;;5066004;28;20131;-60
2023/12/30 04:41:39;;;;;;;11.32;1.30;;;;;;;;;;5065424;28;20053;-60
2023/12/30 04:44:05;;;;;;;4.72;0.93;;;;;;;;;;5064720;28;20053;-61
2023/12/30 04:46:31;;;;;;;8.10;1.73;;;;;;;;;;5065373;28;20511;-60
2023/12/30 04:49:01;;;;;;;13.82;1.77;;;;;;;;;;5066187;28;20052;-59
2023/12/30 04:51:28;;;;;;;11.80;1.27;;;;;;;;;;5065666;28;20064;-61
2023/12/30 04:53:54;;;;;;;6.85;1.67;;;;;;;;;;5064621;28;20542;-60
2023/12/30 04:56:21;;;;;;;7.53;1.65;;;;;;;;;;5065205;28;20494;-60
2023/12/30 04:58:48;;;;;;;8.52;1.52;;;;;;;;;;5063149;28;20081;-60
2023/12/30 05:01:14;;;;;;;6.78;1.00;;;;;;;;;;5065352;28;20057;-60
2023/12/30 05:03:41;;;;;;;8.13;1.83;;;;;;;;;;5062904;28;20059;-61
2023/12/30 05:06:07;;;;;;;9.75;1.50;;;;;;;;;;5064680;28;20053;-60
2023/12/30 05:08:34;;;;;;;10.48;1.52;;;;;;;;;;5063045;28;20085;-60
2023/12/30 05:11:06;;;;;;;10.82;1.67;;;;;;;;;;5059893;28;20408;-60
2023/12/30 05:13:32;;;;;;;7.47;1.77;;;;;;;;;;5064328;28;20053;-60
2023/12/30 05:15:59;;;;;;;9.57;1.45;;;;;;;;;;5061609;28;20059;-60
2023/12/30 05:18:26;;;;;;;6.00;1.40;;;;;;;;;;5062720;28;20049;-61
2023/12/30 05:20:52;;;;;;;9.35;1.67;;;;;;;;;;5064899;28;20065;-60
2023/12/30 05:23:19;;;;;;;5.10;1.27;;;;;;;;;;5064500;28;20049;-60
2023/12/30 05:25:45;;;;;;;14.27;2.47;;;;;;;;;;5062579;28;20577;-61
2023/12/30 05:28:12;;;;;;;11.93;1.92;;;;;;;;;;5061795;28;20462;-60
2023/12/30 05:30:38;;;;;;;23.42;2.35;;;;;;;;;;5064904;28;20577;-60
2023/12/30 05:33:06;;;;;;;10.30;1.80;;;;;;;;;;5064139;28;20496;-60
2023/12/30 05:35:35;;;;;;;11.07;1.80;;;;;;;;;;5064172;28;20139;-60
2023/12/30 05:38:02;;;;;;;4.07;1.25;;;;;;;;;;5064951;28;20052;-60
2023/12/30 05:40:30;;;;;;;5.78;1.77;;;;;;;;;;5064292;28;20142;-59
2023/12/30 05:42:56;;;;;;;7.95;1.17;;;;;;;;;;5060671;28;20053;-58
2023/12/30 05:45:22;;;;;;;12.57;1.90;;;;;;;;;;5064028;28;20096;-60
2023/12/30 05:47:49;;;;;;;8.93;1.70;;;;;;;;;;5064595;28;20049;-59
2023/12/30 05:50:16;;;;;;;11.70;2.13;;;;;;;;;;5064303;28;20497;-60
2023/12/30 05:52:42;;;;;;;8.23;1.52;;;;;;;;;;5065122;28;20053;-60
2023/12/30 05:55:08;;;;;;;5.57;1.50;;;;;;;;;;5066576;28;20065;-61
2023/12/30 05:57:35;;;;;;;7.10;1.80;;;;;;;;;;5065300;28;20059;-60
2023/12/30 06:00:01;;;;;;;12.30;2.08;;;;;;;;;;5064622;28;20045;-60
2023/12/30 06:02:28;;;;;;;7.88;1.50;;;;;;;;;;5064675;28;20525;-60
2023/12/30 06:04:54;;;;;;;6.18;1.85;;;;;;;;;;5065000;28;20053;-60
2023/12/30 06:07:21;;;;;;;11.27;1.90;;;;;;;;;;5064556;28;20099;-61
2023/12/30 06:09:47;;;;;;;9.82;1.50;;;;;;;;;;5063837;28;20447;-60
2023/12/30 06:12:14;;;;;;;7.80;1.45;;;;;;;;;;5064329;28;20836;-61
2023/12/30 06:14:40;;;;;;;11.55;1.58;;;;;;;;;;5064138;28;20524;-60
2023/12/30 06:17:07;;;;;;;7.85;1.80;;;;;;;;;;5063871;28;20483;-61
2023/12/30 06:19:34;;;;;;;12.88;2.55;;;;;;;;;;5063533;28;20064;-60
2023/12/30 06:22:00;;;;;;;9.23;2.10;;;;;;;;;;5063824;28;20080;-58
2023/12/30 06:24:27;;;;;;;8.50;1.30;;;;;;;;;;5062841;28;20059;-60
2023/12/30 06:26:54;;;;;;;8.70;1.20;;;;;;;;;;5064585;28;20685;-60
2023/12/30 06:29:20;;;;;;;11.45;2.70;;;;;;;;;;5063826;28;20431;-60
2023/12/30 06:31:47;;;;;;;8.55;1.40;;;;;;;;;;5063484;28;20052;-60
2023/12/30 06:34:13;;;;;;;10.98;1.50;;;;;;;;;;5062034;28;20148;-61
2023/12/30 06:36:41;;;;;;;9.30;1.40;;;;;;;;;;5062583;28;20057;-61
2023/12/30 06:39:11;;;;;;;6.80;1.60;;;;;;;;;;5062877;28;20079;-61
2023/12/30 06:41:38;;;;;;;8.52;1.60;;;;;;;;;;5063470;28;20496;-61
2023/12/30 06:44:04;;;;;;;11.18;2.03;;;;;;;;;;5062814;28;20049;-60
2023/12/30 06:46:30;;;;;;;9.80;1.45;;;;;;;;;;5063163;28;20059;-60
2023/12/30 06:48:57;;;;;;;5.53;1.05;;;;;;;;;;5062911;28;20056;-61
2023/12/30 06:51:23;;;;;;;6.38;1.52;;;;;;;;;;5063880;28;20522;-60
2023/12/30 06:53:50;;;;;;;9.27;1.65;;;;;;;;;;5062332;28;20049;-61
2023/12/30 06:56:16;;;;;;;8.35;2.30;;;;;;;;;;5052150;28;20471;-61
2023/12/30 06:58:45;;;;;;;13.80;2.63;;;;;;;;;;5062076;28;20359;-60
2023/12/30 07:01:12;;;;;;;12.43;1.88;;;;;;;;;;5063516;28;20049;-61
2023/12/30 07:03:38;;;;;;;6.97;1.58;;;;;;;;;;5062812;28;20064;-61
2023/12/30 07:06:05;;;;;;;4.25;1.70;;;;;;;;;;5063412;28;20056;-61
2023/12/30 07:08:31;;;;;;;9.93;1.30;;;;;;;;;;5058450;28;20049;-61
2023/12/30 07:10:58;;;;;;;7.05;1.77;;;;;;;;;;5062757;28;20126;-60
2023/12/30 07:13:24;;;;;;;10.43;1.95;;;;;;;;;;5061853;28;20059;-61
2023/12/30 07:15:52;;;;;;;9.57;1.50;;;;;;;;;;5062938;28;20053;-61
2023/12/30 07:18:19;;;;;;;11.23;1.50;;;;;;;;;;5063373;28;20064;-60
2023/12/30 07:20:45;;;;;;;9.32;1.95;;;;;;;;;;5062761;28;20503;-61
2023/12/30 07:23:12;;;;;;;10.50;1.83;;;;;;;;;;5061781;28;20053;-60
2023/12/30 07:25:39;;;;;;;7.80;2.22;;;;;;;;;;5061546;28;20053;-60
2023/12/30 07:28:06;;;;;;;8.57;2.70;;;;;;;;;;5060197;28;20599;-60
2023/12/30 07:30:33;;;;;;;10.85;1.58;;;;;;;;;;5063333;28;20144;-60
2023/12/30 07:33:01;;;;;;;20.17;2.38;;;;;;;;;;5062289;28;20049;-59
2023/12/30 07:35:28;;;;;;;12.32;1.77;;;;;;;;;;5061565;28;20075;-60
2023/12/30 07:37:54;;;;;;;10.85;1.75;;;;;;;;;;5061578;28;20044;-60
2023/12/30 07:40:21;;;;;;;7.88;1.58;;;;;;;;;;5063033;28;20053;-60
2023/12/30 07:42:47;;;;;;;12.57;1.33;;;;;;;;;;5062379;28;20053;-60
2023/12/30 07:45:14;;;;;;;13.75;1.58;;;;;;;;;;5060395;28;20049;-60
2023/12/30 07:47:40;;;;;;;5.78;2.08;;;;;;;;;;5062214;28;20111;-59
2023/12/30 07:50:07;;;;;;;9.02;1.85;;;;;;;;;;5062939;28;20500;-60
2023/12/30 07:52:34;;;;;;;10.45;1.50;;;;;;;;;;5061867;28;20060;-60
2023/12/30 07:55:00;;;;;;;7.55;1.50;;;;;;;;;;5061897;28;20073;-60
2023/12/30 07:57:27;;;;;;;8.82;1.63;;;;;;;;;;5061080;28;20057;-60
2023/12/30 07:59:53;;;;;;;5.93;1.40;;;;;;;;;;5061729;28;20096;-59
2023/12/30 08:02:19;;;;;;;11.55;2.20;;;;;;;;;;5062357;28;20057;-60
2023/12/30 08:04:46;;;;;;;12.48;2.35;;;;;;;;;;5061951;28;20053;-60
2023/12/30 08:07:14;;;;;;;9.90;1.63;;;;;;;;;;5053935;28;20325;-59
2023/12/30 08:09:40;;;;;;;11.50;2.13;;;;;;;;;;5047665;28;20049;-59
2023/12/30 08:12:07;;;;;;;18.73;3.20;;;;;;;;;;5061357;28;20140;-59
2023/12/30 08:14:34;;;;;;;13.55;2.20;;;;;;;;;;5059917;28;20049;-60
2023/12/30 08:17:01;;;;;;;12.13;2.35;;;;;;;;;;5060250;28;20057;-59
2023/12/30 08:19:27;;;;;;;11.50;3.25;;;;;;;;;;5060595;28;20602;-60
2023/12/30 08:21:54;;;;;;;10.82;2.45;;;;;;;;;;5060502;28;20053;-59
2023/12/30 08:24:20;;;;;;;9.95;2.33;;;;;;;;;;5061190;28;20060;-59
2023/12/30 08:26:47;;;;;;;6.28;2.08;;;;;;;;;;5062103;28;20538;-59
2023/12/30 08:29:14;;;;;;;13.10;2.63;;;;;;;;;;5061593;28;20921;-59
2023/12/30 08:31:45;;;;;;;10.75;2.85;;;;;;;;;;5060187;28;20088;-59
2023/12/30 08:34:12;;;;;;;16.83;4.43;;;;;;;;;;5061934;28;20052;-58
2023/12/30 08:36:39;;;;;;;19.23;6.82;;;;;;;;;;5060682;28;20053;-59
2023/12/30 08:39:05;;;;;;;29.08;11.00;;;;;;;;;;5061762;28;20183;-59
2023/12/30 08:41:33;;;;;;;30.88;12.07;;;;;;;;;;5061464;28;20079;-58
2023/12/30 08:44:00;;;;;;;36.78;13.23;;;;;;;;;;5061987;28;20057;-59
2023/12/30 08:46:26;;;;;;;32.63;14.60;;;;;;;;;;5061928;28;20057;-58
2023/12/30 08:48:53;;;;;;;31.08;12.10;;;;;;;;;;5061057;28;20057;-59
2023/12/30 08:51:20;;;;;;;27.52;11.27;;;;;;;;;;5059861;28;20049;-59
2023/12/30 08:53:46;;;;;;;24.27;11.23;;;;;;;;;;5060735;28;20053;-59
2023/12/30 08:56:12;;;;;;;23.40;9.65;;;;;;;;;;5062134;28;20594;-59
2023/12/30 08:58:39;;;;;;;25.27;10.13;;;;;;;;;;5061386;28;20158;-60
2023/12/30 09:01:06;;;;;;;27.05;8.70;;;;;;;;;;5061465;28;20119;-61
2023/12/30 09:03:33;;;;;;;24.33;8.55;;;;;;;;;;5061163;28;20064;-59
2023/12/30 09:05:59;;;;;;;17.40;6.05;;;;;;;;;;5061192;28;20049;-61
2023/12/30 09:08:26;;;;;;;20.67;5.47;;;;;;;;;;5063311;28;20581;-60
2023/12/30 09:10:53;;;;;;;20.60;6.15;;;;;;;;;;5064687;28;20056;-60
2023/12/30 09:13:19;;;;;;;17.45;6.70;;;;;;;;;;5066383;28;20065;-60
2023/12/30 09:15:45;;;;;;;17.98;5.40;;;;;;;;;;5064111;28;20144;-60
2023/12/30 09:18:12;;;;;;;20.73;5.07;;;;;;;;;;5062257;28;20139;-60
2023/12/30 09:20:40;;;;;;;12.00;4.90;;;;;;;;;;5063954;28;20056;-59
2023/12/30 09:23:07;;;;;;;19.05;6.05;;;;;;;;;;5054808;28;20060;-58
2023/12/30 09:25:33;;;;;;;18.42;4.53;;;;;;;;;;5064473;28;20135;-60
2023/12/30 09:28:00;;;;;;;16.33;4.95;;;;;;;;;;5065632;28;20495;-59
2023/12/30 09:30:26;;;;;;;23.05;4.53;;;;;;;;;;5065171;28;20057;-57
2023/12/30 09:32:53;;;;;;;15.52;4.38;;;;;;;;;;5064455;28;20506;-57
2023/12/30 09:35:19;;;;;;;19.60;5.15;;;;;;;;;;5064130;28;20504;-60
2023/12/30 09:37:46;;;;;;;17.00;4.85;;;;;;;;;;5064917;28;20049;-58
2023/12/30 09:40:12;;;;;;;19.52;5.32;;;;;;;;;;5064221;28;20053;-59
2023/12/30 09:42:40;;;;;;;16.13;4.20;;;;;;;;;;5064554;28;20056;-59
2023/12/30 09:45:07;;;;;;;10.65;3.78;;;;;;;;;;5064083;28;20061;-59
2023/12/30 09:47:35;;;;;;;14.18;3.60;;;;;;;;;;5064641;28;20185;-59
2023/12/30 09:50:03;;;;;;;13.77;3.75;;;;;;;;;;5064393;28;20056;-59
2023/12/30 09:52:30;;;;;;;13.98;3.45;;;;;;;;;;5064166;28;20056;-59
2023/12/30 09:54:56;;;;;;;11.45;3.45;;;;;;;;;;5064266;28;20164;-60
2023/12/30 09:57:23;;;;;;;14.73;3.28;;;;;;;;;;5064500;28;20053;-58
2023/12/30 09:59:50;;;;;;;16.52;2.65;;;;;;;;;;5064735;28;20135;-59
2023/12/30 10:02:16;;;;;;;12.80;4.00;;;;;;;;;;5063773;28;20115;-59
2023/12/30 10:04:43;;;;;;;13.25;2.88;;;;;;;;;;5063316;28;20099;-59
2023/12/30 10:07:11;;;;;;;14.82;2.40;;;;;;;;;;5064509;28;20052;-59
2023/12/30 10:09:38;;;;;;;10.93;2.95;;;;;;;;;;5064486;28;20053;-59
2023/12/30 10:12:05;;;;;;;9.18;2.67;;;;;;;;;;5064244;28;20140;-59
2023/12/30 10:14:31;;;;;;;12.65;3.10;;;;;;;;;;5063729;28;20061;-59
2023/12/30 10:16:58;;;;;;;11.98;2.72;;;;;;;;;;5063367;28;20158;-59
2023/12/30 10:19:25;;;;;;;13.73;3.88;;;;;;;;;;5063624;28;20571;-59
2023/12/30 10:21:51;;;;;;;11.00;2.58;;;;;;;;;;5064041;28;20140;-59
2023/12/30 10:24:18;;;;;;;17.88;2.97;;;;;;;;;;5063955;28;20049;-60
2023/12/30 10:26:44;;;;;;;9.32;2.28;;;;;;;;;;5063796;28;20060;-59
2023/12/30 10:29:11;;;;;;;11.05;2.58;;;;;;;;;;5063843;28;20063;-60
2023/12/30 10:31:38;;;;;;;11.18;2.63;;;;;;;;;;5043646;28;21027;-59
2023/12/30 10:34:05;;;;;;;24.40;3.58;;;;;;;;;;5057819;28;20087;-58
2023/12/30 10:36:31;;;;;;;15.68;3.22;;;;;;;;;;5063902;28;20088;-60
2023/12/30 10:38:59;;;;;;;13.27;2.78;;;;;;;;;;5063823;28;20604;-59
2023/12/30 10:41:26;;;;;;;12.40;2.63;;;;;;;;;;5064264;28;20053;-60
2023/12/30 10:43:53;;;;;;;16.13;3.20;;;;;;;;;;5063916;28;20049;-61
2023/12/30 10:46:24;;;;;;;10.32;2.78;;;;;;;;;;5060296;28;20052;-59
2023/12/30 10:49:03;;;;;;;13.55;2.58;;;;;;;;;;5060297;28;20064;-61
2023/12/30 10:51:33;;;;;;;18.50;3.25;;;;;;;;;;5062664;28;20053;-58
2023/12/30 10:54:06;;;;;;;13.65;2.92;;;;;;;;;;5062821;28;20061;-60
2023/12/30 10:56:43;;;;;;;11.85;2.92;;;;;;;;;;5063516;28;20132;-59
2023/12/30 10:59:11;;;;;;;14.02;2.92;;;;;;;;;;5062933;28;20052;-59
2023/12/30 11:01:38;;;;;;;10.65;3.03;;;;;;;;;;5062672;28;20164;-59
2023/12/30 11:04:11;;;;;;;11.80;2.53;;;;;;;;;;5063586;28;20602;-59
2023/12/30 11:06:43;;;;;;;15.88;3.42;;;;;;;;;;5063111;28;20049;-59
2023/12/30 11:09:11;;;;;;;15.27;4.93;;;;;;;;;;5062834;28;20059;-60
2023/12/30 11:11:59;;;;;;;15.13;5.57;;;;;;;;;;5062490;28;20059;-59
2023/12/30 11:14:26;;;;;;;14.40;5.50;;;;;;;;;;5062120;28;20957;-60
2023/12/30 11:16:55;;;;;;;13.98;5.97;;;;;;;;;;5063750;28;20080;-59
2023/12/30 11:19:25;;;;;;;21.50;5.80;;;;;;;;;;5063714;28;20504;-59
2023/12/30 11:21:54;;;;;;;17.70;5.28;;;;;;;;;;5062843;28;20057;-60
2023/12/30 11:24:22;;;;;;;23.45;6.18;;;;;;;;;;5060552;28;20062;-60
2023/12/30 11:26:51;;;;;;;17.02;4.47;;;;;;;;;;5062549;28;20132;-60
2023/12/30 11:29:18;;;;;;;12.48;4.57;;;;;;;;;;5062888;28;20057;-60
2023/12/30 11:31:46;;;;;;;20.02;4.32;;;;;;;;;;5062018;28;20076;-59
2023/12/30 11:34:14;;;;;;;19.73;4.30;;;;;;;;;;5060825;28;20063;-59
2023/12/30 11:36:42;;;;;;;20.08;5.15;;;;;;;;;;5062208;28;20053;-59
2023/12/30 11:39:09;;;;;;;19.80;4.32;;;;;;;;;;5051201;28;20049;-59
2023/12/30 11:41:35;;;;;;;14.07;3.60;;;;;;;;;;5062804;28;20053;-60
2023/12/30 11:44:03;;;;;;;17.95;4.82;;;;;;;;;;5062279;28;20061;-59
2023/12/30 11:46:30;;;;;;;22.27;4.85;;;;;;;;;;5061535;28;20056;-60
2023/12/30 11:48:56;;;;;;;20.73;5.40;;;;;;;;;;5062242;28;20589;-60
2023/12/30 11:51:24;;;;;;;16.65;4.47;;;;;;;;;;5061508;28;20044;-59
2023/12/30 11:53:51;;;;;;;18.10;4.60;;;;;;;;;;5062042;28;20064;-60
2023/12/30 11:56:19;;;;;;;15.43;5.50;;;;;;;;;;5061711;28;20053;-60
2023/12/30 11:58:46;;;;;;;21.95;5.25;;;;;;;;;;5061015;28;20130;-60
2023/12/30 12:01:12;;;;;;;20.48;5.50;;;;;;;;;;5062895;28;20060;-60
2023/12/30 12:03:39;;;;;;;22.67;5.43;;;;;;;;;;5062016;28;20061;-59
2023/12/30 12:06:07;;;;;;;20.13;6.22;;;;;;;;;;5062217;28;20059;-59
2023/12/30 12:08:34;;;;;;;24.35;6.65;;;;;;;;;;5061555;28;20056;-60
2023/12/30 12:11:00;;;;;;;20.27;7.38;;;;;;;;;;5060320;28;20529;-59
2023/12/30 12:13:26;;;;;;;23.60;7.90;;;;;;;;;;5061822;28;20053;-60
2023/12/30 12:15:54;;;;;;;23.67;7.85;;;;;;;;;;5059719;28;20152;-60
2023/12/30 12:18:21;;;;;;;19.15;8.30;;;;;;;;;;5061720;28;20053;-60
2023/12/30 12:20:49;;;;;;;25.35;8.40;;;;;;;;;;5062020;28;20142;-60
2023/12/30 12:23:16;;;;;;;17.80;8.35;;;;;;;;;;5062116;28;20442;-60
2023/12/30 12:25:43;;;;;;;18.33;8.35;;;;;;;;;;5061936;28;20052;-60
2023/12/30 12:28:14;;;;;;;24.45;8.55;;;;;;;;;;5060911;28;20057;-60
2023/12/30 12:30:41;;;;;;;30.17;8.70;;;;;;;;;;5061312;28;20056;-59
2023/12/30 12:33:08;;;;;;;22.50;9.07;;;;;;;;;;5061714;28;20095;-59
2023/12/30 12:35:35;;;;;;;22.25;8.95;;;;;;;;;;5061147;28;20049;-59
2023/12/30 12:38:02;;;;;;;22.52;8.52;;;;;;;;;;5062044;28;20053;-60
2023/12/30 12:40:29;;;;;;;23.65;9.75;;;;;;;;;;5061079;28;20075;-59
2023/12/30 12:42:55;;;;;;;21.88;9.90;;;;;;;;;;5062024;28;20057;-60
2023/12/30 12:45:22;;;;;;;35.33;11.80;;;;;;;;;;5065547;28;20049;-60
2023/12/30 12:47:48;;;;;;;27.70;10.85;;;;;;;;;;5065557;28;20057;-59
2023/12/30 12:50:15;;;;;;;16.85;10.93;;;;;;;;;;5067144;28;20088;-60
2023/12/30 12:52:41;;;;;;;23.25;10.75;;;;;;;;;;5080118;28;20526;-60
2023/12/30 12:55:08;;;;;;;26.85;11.35;;;;;;;;;;5064754;28;20115;-60
2023/12/30 12:57:34;;;;;;;36.97;12.20;;;;;;;;;;5061323;28;20080;-59
2023/12/30 13:00:06;;;;;;;25.30;10.70;;;;;;;;;;5064685;28;20052;-60
2023/12/30 13:02:34;;;;;;;19.17;10.93;;;;;;;;;;5065243;28;20053;-58
2023/12/30 13:05:01;;;;;;;27.58;11.30;;;;;;;;;;5065376;28;20048;-60
2023/12/30 13:07:28;;;;;;;27.63;10.93;;;;;;;;;;5045514;28;20203;-59
2023/12/30 13:10:00;;;;;;;21.63;11.23;;;;;;;;;;5059161;28;20103;-59
2023/12/30 13:12:27;;;;;;;23.65;10.57;;;;;;;;;;5063267;28;20057;-60
2023/12/30 13:14:58;;;;;;;21.42;11.13;;;;;;;;;;5063406;28;20079;-57
2023/12/30 13:17:24;;;;;;;25.30;11.43;;;;;;;;;;5065457;28;20528;-58
2023/12/30 13:19:51;;;;;;;24.10;11.02;;;;;;;;;;5064863;28;20160;-59
2023/12/30 13:22:17;;;;;;;24.83;10.88;;;;;;;;;;5064761;28;20057;-59
2023/12/30 13:24:45;;;;;;;23.80;11.05;;;;;;;;;;5064953;28;20148;-59
2023/12/30 13:27:12;;;;;;;21.13;10.95;;;;;;;;;;5066043;28;20111;-59
2023/12/30 13:29:38;;;;;;;21.02;10.43;;;;;;;;;;5065279;28;20527;-58
2023/12/30 13:32:05;;;;;;;27.92;10.95;;;;;;;;;;5065645;28;20114;-59
2023/12/30 13:34:32;;;;;;;23.70;10.52;;;;;;;;;;5065524;28;20172;-59
2023/12/30 13:37:04;;;;;;;22.23;10.05;;;;;;;;;;5065641;28;20103;-58
2023/12/30 13:39:33;;;;;;;19.05;10.30;;;;;;;;;;5066184;28;20061;-60
2023/12/30 13:42:04;;;;;;;19.70;9.32;;;;;;;;;;5065961;28;20055;-60
2023/12/30 13:44:40;;;;;;;20.83;8.45;;;;;;;;;;5063736;28;20065;-59
2023/12/30 13:47:38;;;;;;;25.05;8.55;;;;;;;;;;5050400;28;20061;-62
2023/12/30 13:52:32;;;;;;;16.92;6.50;;;;;;;;;;5051687;28;20052;-59
2023/12/30 13:54:58;;;;;;;14.93;5.88;;;;;;;;;;5053539;28;20056;-59
2023/12/30 13:57:28;;;;;;;17.60;6.40;;;;;;;;;;5055876;28;20087;-59
2023/12/30 13:59:55;;;;;;;12.07;5.40;;;;;;;;;;5063672;28;20500;-59
2023/12/30 14:02:23;;;;;;;16.42;5.78;;;;;;;;;;5064602;28;20515;-57
2023/12/30 14:04:54;;;;;;;10.23;4.13;;;;;;;;;;5061380;28;20049;-58
2023/12/30 14:07:28;;;;;;;15.98;3.85;;;;;;;;;;5059841;28;20061;-59
2023/12/30 14:09:59;;;;;;;13.55;3.88;;;;;;;;;;5064235;28;20061;-59
2023/12/30 14:12:27;;;;;;;14.30;3.60;;;;;;;;;;5063382;28;20144;-59
2023/12/30 14:14:54;;;;;;;13.05;3.70;;;;;;;;;;5064022;28;20053;-58
2023/12/30 14:17:22;;;;;;;12.93;4.65;;;;;;;;;;5063904;28;20053;-60
2023/12/30 14:19:49;;;;;;;16.20;4.05;;;;;;;;;;5063382;28;20138;-60
2023/12/30 14:22:17;;;;;;;14.40;4.40;;;;;;;;;;5061426;28;20513;-59
2023/12/30 14:24:45;;;;;;;11.82;3.88;;;;;;;;;;5061698;28;20053;-59
2023/12/30 14:27:12;;;;;;;18.77;4.40;;;;;;;;;;5063395;28;20575;-59
2023/12/30 14:29:44;;;;;;;12.43;3.55;;;;;;;;;;5062934;28;20442;-59
2023/12/30 14:32:12;;;;;;;14.90;3.72;;;;;;;;;;5063008;28;20137;-59
2023/12/30 14:34:39;;;;;;;14.93;3.33;;;;;;;;;;5061304;28;21022;-59
2023/12/30 14:37:06;;;;;;;13.32;3.20;;;;;;;;;;5063780;28;20064;-59